sensor_id;sensor_type;location;lat;lon;timestamp;temperature;humidity
54034;DHT22;39952;40.122;18.294;2022-07-23T00:02:23;29.80;42.80
54034;DHT22;39952;40.122;18.294;2022-07-23T00:05:30;29.80;42.90
54034;DHT22;39952;40.122;18.294;2022-07-23T00:08:39;29.80;42.90
54034;DHT22;39952;40.122;18.294;2022-07-23T00:11:46;29.60;43.30
54034;DHT22;39952;40.122;18.294;2022-07-23T00:14:52;29.40;43.60
54034;DHT22;39952;40.122;18.294;2022-07-23T00:17:59;29.10;44.10
54034;DHT22;39952;40.122;18.294;2022-07-23T00:21:07;28.90;44.60
54034;DHT22;39952;40.122;18.294;2022-07-23T00:24:16;28.90;44.50
54034;DHT22;39952;40.122;18.294;2022-07-23T00:27:23;28.80;44.40
54034;DHT22;39952;40.122;18.294;2022-07-23T00:30:30;28.80;44.30
54034;DHT22;39952;40.122;18.294;2022-07-23T00:33:37;28.70;44.40
54034;DHT22;39952;40.122;18.294;2022-07-23T00:36:43;28.80;44.00
54034;DHT22;39952;40.122;18.294;2022-07-23T00:39:52;29.10;43.50
54034;DHT22;39952;40.122;18.294;2022-07-23T00:42:59;29.00;43.50
54034;DHT22;39952;40.122;18.294;2022-07-23T00:46:06;29.10;43.30
54034;DHT22;39952;40.122;18.294;2022-07-23T00:49:13;28.90;43.90
54034;DHT22;39952;40.122;18.294;2022-07-23T00:52:19;28.50;44.50
54034;DHT22;39952;40.122;18.294;2022-07-23T00:55:27;28.40;44.50
54034;DHT22;39952;40.122;18.294;2022-07-23T00:58:35;28.40;44.60
54034;DHT22;39952;40.122;18.294;2022-07-23T01:01:43;28.50;43.90
54034;DHT22;39952;40.122;18.294;2022-07-23T01:04:52;28.70;43.60
54034;DHT22;39952;40.122;18.294;2022-07-23T01:08:00;28.80;43.50
54034;DHT22;39952;40.122;18.294;2022-07-23T01:11:09;28.80;43.00
54034;DHT22;39952;40.122;18.294;2022-07-23T01:14:18;29.00;42.90
54034;DHT22;39952;40.122;18.294;2022-07-23T01:17:25;29.10;42.60
54034;DHT22;39952;40.122;18.294;2022-07-23T01:20:32;29.00;42.60
54034;DHT22;39952;40.122;18.294;2022-07-23T01:23:41;29.10;42.80
54034;DHT22;39952;40.122;18.294;2022-07-23T01:26:48;29.10;42.60
54034;DHT22;39952;40.122;18.294;2022-07-23T01:29:57;29.00;42.40
54034;DHT22;39952;40.122;18.294;2022-07-23T01:33:08;28.80;42.90
54034;DHT22;39952;40.122;18.294;2022-07-23T01:36:14;28.80;43.20
54034;DHT22;39952;40.122;18.294;2022-07-23T01:39:23;29.00;42.50
54034;DHT22;39952;40.122;18.294;2022-07-23T01:42:31;28.80;43.00
54034;DHT22;39952;40.122;18.294;2022-07-23T01:45:38;28.40;43.80
54034;DHT22;39952;40.122;18.294;2022-07-23T01:48:46;28.20;44.40
54034;DHT22;39952;40.122;18.294;2022-07-23T01:52:28;27.90;45.20
54034;DHT22;39952;40.122;18.294;2022-07-23T01:55:36;27.90;45.10
54034;DHT22;39952;40.122;18.294;2022-07-23T01:58:43;28.00;44.80
54034;DHT22;39952;40.122;18.294;2022-07-23T02:01:49;28.20;44.70
54034;DHT22;39952;40.122;18.294;2022-07-23T02:04:57;28.30;43.90
54034;DHT22;39952;40.122;18.294;2022-07-23T02:08:04;28.20;44.70
54034;DHT22;39952;40.122;18.294;2022-07-23T02:11:15;28.20;44.40
54034;DHT22;39952;40.122;18.294;2022-07-23T02:14:22;28.20;44.20
54034;DHT22;39952;40.122;18.294;2022-07-23T02:17:29;28.10;44.70
54034;DHT22;39952;40.122;18.294;2022-07-23T02:20:39;27.90;45.10
54034;DHT22;39952;40.122;18.294;2022-07-23T02:23:46;28.10;44.40
54034;DHT22;39952;40.122;18.294;2022-07-23T02:26:54;28.10;44.40
54034;DHT22;39952;40.122;18.294;2022-07-23T02:30:03;28.00;44.60
54034;DHT22;39952;40.122;18.294;2022-07-23T02:33:11;28.00;44.50
54034;DHT22;39952;40.122;18.294;2022-07-23T02:36:18;28.00;44.40
54034;DHT22;39952;40.122;18.294;2022-07-23T02:39:25;28.00;44.20
54034;DHT22;39952;40.122;18.294;2022-07-23T02:42:34;28.10;44.40
54034;DHT22;39952;40.122;18.294;2022-07-23T02:45:41;28.30;43.90
54034;DHT22;39952;40.122;18.294;2022-07-23T02:48:48;28.50;43.10
54034;DHT22;39952;40.122;18.294;2022-07-23T02:51:55;28.40;43.20
54034;DHT22;39952;40.122;18.294;2022-07-23T02:55:02;28.30;42.90
54034;DHT22;39952;40.122;18.294;2022-07-23T02:58:11;28.40;43.30
54034;DHT22;39952;40.122;18.294;2022-07-23T03:01:18;28.30;43.40
54034;DHT22;39952;40.122;18.294;2022-07-23T03:04:24;28.40;43.10
54034;DHT22;39952;40.122;18.294;2022-07-23T03:07:31;28.30;43.50
54034;DHT22;39952;40.122;18.294;2022-07-23T03:10:39;28.30;43.30
54034;DHT22;39952;40.122;18.294;2022-07-23T03:13:47;28.50;43.10
54034;DHT22;39952;40.122;18.294;2022-07-23T03:16:54;28.30;43.60
54034;DHT22;39952;40.122;18.294;2022-07-23T03:20:00;28.30;43.10
54034;DHT22;39952;40.122;18.294;2022-07-23T03:23:07;28.30;43.70
54034;DHT22;39952;40.122;18.294;2022-07-23T03:26:15;28.10;44.10
54034;DHT22;39952;40.122;18.294;2022-07-23T03:29:23;28.20;43.90
54034;DHT22;39952;40.122;18.294;2022-07-23T03:32:30;28.20;44.20
54034;DHT22;39952;40.122;18.294;2022-07-23T03:35:37;28.10;44.40
54034;DHT22;39952;40.122;18.294;2022-07-23T03:38:58;28.10;44.70
54034;DHT22;39952;40.122;18.294;2022-07-23T03:42:05;28.30;44.60
54034;DHT22;39952;40.122;18.294;2022-07-23T03:45:13;28.70;42.90
54034;DHT22;39952;40.122;18.294;2022-07-23T03:48:20;29.00;42.10
54034;DHT22;39952;40.122;18.294;2022-07-23T03:51:27;29.10;42.00
54034;DHT22;39952;40.122;18.294;2022-07-23T03:54:34;29.30;41.60
54034;DHT22;39952;40.122;18.294;2022-07-23T03:57:41;29.30;41.40
54034;DHT22;39952;40.122;18.294;2022-07-23T04:00:50;29.40;41.40
54034;DHT22;39952;40.122;18.294;2022-07-23T04:03:57;29.40;41.50
54034;DHT22;39952;40.122;18.294;2022-07-23T04:07:05;29.50;41.20
54034;DHT22;39952;40.122;18.294;2022-07-23T04:10:12;29.50;41.40
54034;DHT22;39952;40.122;18.294;2022-07-23T04:13:19;29.60;41.40
54034;DHT22;39952;40.122;18.294;2022-07-23T04:16:28;29.70;41.40
54034;DHT22;39952;40.122;18.294;2022-07-23T04:19:36;29.80;41.20
54034;DHT22;39952;40.122;18.294;2022-07-23T04:22:46;29.90;41.00
54034;DHT22;39952;40.122;18.294;2022-07-23T04:25:53;30.00;40.40
54034;DHT22;39952;40.122;18.294;2022-07-23T04:29:01;30.10;40.50
54034;DHT22;39952;40.122;18.294;2022-07-23T04:32:10;29.90;40.90
54034;DHT22;39952;40.122;18.294;2022-07-23T04:35:16;29.80;40.80
54034;DHT22;39952;40.122;18.294;2022-07-23T04:38:24;29.90;40.50
54034;DHT22;39952;40.122;18.294;2022-07-23T04:41:34;30.10;40.10
54034;DHT22;39952;40.122;18.294;2022-07-23T04:44:41;30.30;40.00
54034;DHT22;39952;40.122;18.294;2022-07-23T04:47:49;30.30;39.90
54034;DHT22;39952;40.122;18.294;2022-07-23T04:50:55;30.20;40.30
54034;DHT22;39952;40.122;18.294;2022-07-23T04:54:05;30.10;40.50
54034;DHT22;39952;40.122;18.294;2022-07-23T04:57:12;30.30;40.10
54034;DHT22;39952;40.122;18.294;2022-07-23T05:00:19;30.40;39.80
54034;DHT22;39952;40.122;18.294;2022-07-23T05:03:28;30.60;39.40
54034;DHT22;39952;40.122;18.294;2022-07-23T05:06:35;30.80;39.00
54034;DHT22;39952;40.122;18.294;2022-07-23T05:09:42;31.10;38.60
54034;DHT22;39952;40.122;18.294;2022-07-23T05:12:49;31.30;38.20
54034;DHT22;39952;40.122;18.294;2022-07-23T05:15:56;31.60;37.60
54034;DHT22;39952;40.122;18.294;2022-07-23T05:19:04;31.60;37.50
54034;DHT22;39952;40.122;18.294;2022-07-23T05:22:13;31.50;37.70
54034;DHT22;39952;40.122;18.294;2022-07-23T05:25:20;31.70;37.70
54034;DHT22;39952;40.122;18.294;2022-07-23T05:28:27;31.60;38.00
54034;DHT22;39952;40.122;18.294;2022-07-23T05:31:33;31.60;37.60
54034;DHT22;39952;40.122;18.294;2022-07-23T05:34:42;31.70;37.20
54034;DHT22;39952;40.122;18.294;2022-07-23T05:37:49;31.80;36.40
54034;DHT22;39952;40.122;18.294;2022-07-23T05:40:57;32.10;36.00
54034;DHT22;39952;40.122;18.294;2022-07-23T05:44:05;32.30;35.70
54034;DHT22;39952;40.122;18.294;2022-07-23T05:47:15;32.50;35.00
54034;DHT22;39952;40.122;18.294;2022-07-23T05:50:24;32.70;34.60
54034;DHT22;39952;40.122;18.294;2022-07-23T05:53:38;32.80;34.50
54034;DHT22;39952;40.122;18.294;2022-07-23T05:56:53;33.10;33.80
54034;DHT22;39952;40.122;18.294;2022-07-23T05:59:59;33.30;33.10
54034;DHT22;39952;40.122;18.294;2022-07-23T06:03:06;33.50;32.70
54034;DHT22;39952;40.122;18.294;2022-07-23T06:06:16;33.70;32.30
54034;DHT22;39952;40.122;18.294;2022-07-23T06:09:23;33.70;31.80
54034;DHT22;39952;40.122;18.294;2022-07-23T06:12:30;33.80;31.80
54034;DHT22;39952;40.122;18.294;2022-07-23T06:15:36;34.00;31.50
54034;DHT22;39952;40.122;18.294;2022-07-23T06:18:43;34.20;30.90
54034;DHT22;39952;40.122;18.294;2022-07-23T06:21:52;34.30;30.80
54034;DHT22;39952;40.122;18.294;2022-07-23T06:24:59;34.30;31.00
54034;DHT22;39952;40.122;18.294;2022-07-23T06:28:07;34.50;30.60
54034;DHT22;39952;40.122;18.294;2022-07-23T06:31:13;34.70;30.30
54034;DHT22;39952;40.122;18.294;2022-07-23T06:34:20;34.50;29.70
54034;DHT22;39952;40.122;18.294;2022-07-23T06:37:28;34.50;28.60
54034;DHT22;39952;40.122;18.294;2022-07-23T06:40:35;34.70;28.30
54034;DHT22;39952;40.122;18.294;2022-07-23T06:43:42;34.40;28.10
54034;DHT22;39952;40.122;18.294;2022-07-23T06:46:50;34.40;27.60
54034;DHT22;39952;40.122;18.294;2022-07-23T06:49:59;34.40;27.90
54034;DHT22;39952;40.122;18.294;2022-07-23T06:53:07;34.40;27.30
54034;DHT22;39952;40.122;18.294;2022-07-23T06:56:18;34.60;27.30
54034;DHT22;39952;40.122;18.294;2022-07-23T06:59:25;34.70;27.20
54034;DHT22;39952;40.122;18.294;2022-07-23T07:02:31;34.70;27.20
54034;DHT22;39952;40.122;18.294;2022-07-23T07:05:38;35.00;26.90
54034;DHT22;39952;40.122;18.294;2022-07-23T07:08:47;35.00;26.80
54034;DHT22;39952;40.122;18.294;2022-07-23T07:11:54;35.00;26.50
54034;DHT22;39952;40.122;18.294;2022-07-23T07:15:01;34.90;25.90
54034;DHT22;39952;40.122;18.294;2022-07-23T07:18:08;34.90;25.90
54034;DHT22;39952;40.122;18.294;2022-07-23T07:21:15;35.00;25.70
54034;DHT22;39952;40.122;18.294;2022-07-23T07:24:22;34.80;26.40
54034;DHT22;39952;40.122;18.294;2022-07-23T07:27:32;34.80;26.30
54034;DHT22;39952;40.122;18.294;2022-07-23T07:30:39;34.60;26.60
54034;DHT22;39952;40.122;18.294;2022-07-23T07:33:46;34.50;26.00
54034;DHT22;39952;40.122;18.294;2022-07-23T07:36:52;34.80;25.60
54034;DHT22;39952;40.122;18.294;2022-07-23T07:40:01;34.90;25.60
54034;DHT22;39952;40.122;18.294;2022-07-23T07:43:07;35.00;25.20
54034;DHT22;39952;40.122;18.294;2022-07-23T07:46:14;35.00;25.20
54034;DHT22;39952;40.122;18.294;2022-07-23T07:49:21;35.20;25.20
54034;DHT22;39952;40.122;18.294;2022-07-23T07:52:28;35.40;24.80
54034;DHT22;39952;40.122;18.294;2022-07-23T07:55:36;35.50;24.00
54034;DHT22;39952;40.122;18.294;2022-07-23T07:58:43;35.40;23.90
54034;DHT22;39952;40.122;18.294;2022-07-23T08:01:50;35.50;23.70
54034;DHT22;39952;40.122;18.294;2022-07-23T08:04:57;35.60;23.50
54034;DHT22;39952;40.122;18.294;2022-07-23T08:08:04;35.70;23.30
54034;DHT22;39952;40.122;18.294;2022-07-23T08:11:13;35.80;23.00
54034;DHT22;39952;40.122;18.294;2022-07-23T08:14:20;36.00;22.70
54034;DHT22;39952;40.122;18.294;2022-07-23T08:17:26;36.40;22.60
54034;DHT22;39952;40.122;18.294;2022-07-23T08:20:34;36.50;22.20
54034;DHT22;39952;40.122;18.294;2022-07-23T08:23:41;36.60;22.30
54034;DHT22;39952;40.122;18.294;2022-07-23T08:26:49;36.80;21.80
54034;DHT22;39952;40.122;18.294;2022-07-23T08:29:56;36.40;21.90
54034;DHT22;39952;40.122;18.294;2022-07-23T08:33:04;36.10;22.40
54034;DHT22;39952;40.122;18.294;2022-07-23T08:36:12;36.10;22.60
54034;DHT22;39952;40.122;18.294;2022-07-23T08:39:19;36.30;22.40
54034;DHT22;39952;40.122;18.294;2022-07-23T08:42:27;36.50;22.10
54034;DHT22;39952;40.122;18.294;2022-07-23T08:45:36;36.80;21.50
54034;DHT22;39952;40.122;18.294;2022-07-23T08:48:43;36.50;21.10
54034;DHT22;39952;40.122;18.294;2022-07-23T08:51:49;36.80;21.40
54034;DHT22;39952;40.122;18.294;2022-07-23T08:54:57;37.00;21.20
54034;DHT22;39952;40.122;18.294;2022-07-23T08:58:06;37.30;20.90
54034;DHT22;39952;40.122;18.294;2022-07-23T09:01:12;37.20;20.60
54034;DHT22;39952;40.122;18.294;2022-07-23T09:04:20;37.40;20.20
54034;DHT22;39952;40.122;18.294;2022-07-23T09:07:31;37.60;20.40
54034;DHT22;39952;40.122;18.294;2022-07-23T09:10:51;38.70;18.90
54034;DHT22;39952;40.122;18.294;2022-07-23T09:13:59;40.50;17.80
54034;DHT22;39952;40.122;18.294;2022-07-23T09:17:11;41.00;17.20
54034;DHT22;39952;40.122;18.294;2022-07-23T09:20:18;43.40;15.60
54034;DHT22;39952;40.122;18.294;2022-07-23T09:23:37;45.30;14.10
54034;DHT22;39952;40.122;18.294;2022-07-23T09:26:46;46.20;13.40
54034;DHT22;39952;40.122;18.294;2022-07-23T09:29:57;47.00;13.50
54034;DHT22;39952;40.122;18.294;2022-07-23T09:33:05;49.10;12.10
54034;DHT22;39952;40.122;18.294;2022-07-23T09:36:12;48.20;12.30
54034;DHT22;39952;40.122;18.294;2022-07-23T09:39:26;47.80;12.50
54034;DHT22;39952;40.122;18.294;2022-07-23T09:42:34;47.90;12.60
54034;DHT22;39952;40.122;18.294;2022-07-23T09:45:42;49.00;12.10
54034;DHT22;39952;40.122;18.294;2022-07-23T09:48:49;49.40;11.80
54034;DHT22;39952;40.122;18.294;2022-07-23T09:51:59;50.30;11.40
54034;DHT22;39952;40.122;18.294;2022-07-23T09:55:08;49.80;11.50
54034;DHT22;39952;40.122;18.294;2022-07-23T09:58:14;50.10;11.50
54034;DHT22;39952;40.122;18.294;2022-07-23T10:01:23;50.90;11.20
54034;DHT22;39952;40.122;18.294;2022-07-23T10:04:31;52.00;10.70
54034;DHT22;39952;40.122;18.294;2022-07-23T10:07:55;50.50;11.20
54034;DHT22;39952;40.122;18.294;2022-07-23T10:11:23;48.30;12.20
54034;DHT22;39952;40.122;18.294;2022-07-23T10:14:40;48.70;12.20
54034;DHT22;39952;40.122;18.294;2022-07-23T10:17:49;51.30;11.10
54034;DHT22;39952;40.122;18.294;2022-07-23T10:20:56;49.70;13.20
54034;DHT22;39952;40.122;18.294;2022-07-23T10:24:12;49.40;13.10
54034;DHT22;39952;40.122;18.294;2022-07-23T10:31:09;49.20;12.70
54034;DHT22;39952;40.122;18.294;2022-07-23T10:34:41;47.00;13.80
54034;DHT22;39952;40.122;18.294;2022-07-23T10:37:54;46.00;14.50
54034;DHT22;39952;40.122;18.294;2022-07-23T10:41:05;45.10;15.30
54034;DHT22;39952;40.122;18.294;2022-07-23T10:44:12;45.20;15.30
54034;DHT22;39952;40.122;18.294;2022-07-23T10:47:27;45.20;15.00
54034;DHT22;39952;40.122;18.294;2022-07-23T10:51:10;45.60;14.40
54034;DHT22;39952;40.122;18.294;2022-07-23T10:54:21;45.40;14.60
54034;DHT22;39952;40.122;18.294;2022-07-23T10:57:28;43.60;15.30
54034;DHT22;39952;40.122;18.294;2022-07-23T11:00:36;43.10;15.70
54034;DHT22;39952;40.122;18.294;2022-07-23T11:03:55;41.80;16.70
54034;DHT22;39952;40.122;18.294;2022-07-23T11:07:08;41.60;16.70
54034;DHT22;39952;40.122;18.294;2022-07-23T11:10:32;40.90;17.40
54034;DHT22;39952;40.122;18.294;2022-07-23T11:13:46;40.40;17.60
54034;DHT22;39952;40.122;18.294;2022-07-23T11:16:55;40.80;17.40
54034;DHT22;39952;40.122;18.294;2022-07-23T11:20:20;41.00;17.20
54034;DHT22;39952;40.122;18.294;2022-07-23T11:24:00;41.30;16.90
54034;DHT22;39952;40.122;18.294;2022-07-23T11:27:07;41.50;16.70
54034;DHT22;39952;40.122;18.294;2022-07-23T11:30:37;41.80;16.50
54034;DHT22;39952;40.122;18.294;2022-07-23T11:33:44;41.00;16.90
54034;DHT22;39952;40.122;18.294;2022-07-23T11:36:51;40.70;17.20
54034;DHT22;39952;40.122;18.294;2022-07-23T11:40:00;40.40;17.70
54034;DHT22;39952;40.122;18.294;2022-07-23T11:43:10;40.80;17.40
54034;DHT22;39952;40.122;18.294;2022-07-23T11:46:17;41.50;16.80
54034;DHT22;39952;40.122;18.294;2022-07-23T11:49:26;42.00;16.30
54034;DHT22;39952;40.122;18.294;2022-07-23T11:52:33;42.00;16.20
54034;DHT22;39952;40.122;18.294;2022-07-23T11:55:41;42.20;16.20
54034;DHT22;39952;40.122;18.294;2022-07-23T11:58:55;42.10;16.30
54034;DHT22;39952;40.122;18.294;2022-07-23T12:02:04;42.30;16.10
54034;DHT22;39952;40.122;18.294;2022-07-23T12:05:13;42.50;16.10
54034;DHT22;39952;40.122;18.294;2022-07-23T12:08:20;42.10;16.10
54034;DHT22;39952;40.122;18.294;2022-07-23T12:11:28;41.70;16.50
54034;DHT22;39952;40.122;18.294;2022-07-23T12:14:47;42.80;15.80
54034;DHT22;39952;40.122;18.294;2022-07-23T12:17:54;42.10;16.00
54034;DHT22;39952;40.122;18.294;2022-07-23T12:21:04;41.30;16.60
54034;DHT22;39952;40.122;18.294;2022-07-23T12:24:12;41.30;16.60
54034;DHT22;39952;40.122;18.294;2022-07-23T12:27:22;41.80;16.40
54034;DHT22;39952;40.122;18.294;2022-07-23T12:30:31;42.10;16.20
54034;DHT22;39952;40.122;18.294;2022-07-23T12:33:40;42.00;16.20
54034;DHT22;39952;40.122;18.294;2022-07-23T12:36:47;42.60;15.90
54034;DHT22;39952;40.122;18.294;2022-07-23T12:39:54;42.10;15.90
54034;DHT22;39952;40.122;18.294;2022-07-23T12:43:05;42.50;15.80
54034;DHT22;39952;40.122;18.294;2022-07-23T12:46:14;42.40;15.80
54034;DHT22;39952;40.122;18.294;2022-07-23T12:49:28;42.50;15.90
54034;DHT22;39952;40.122;18.294;2022-07-23T12:52:35;43.40;15.30
54034;DHT22;39952;40.122;18.294;2022-07-23T12:55:43;43.10;15.40
54034;DHT22;39952;40.122;18.294;2022-07-23T12:59:09;42.30;15.90
54034;DHT22;39952;40.122;18.294;2022-07-23T13:02:16;41.40;16.70
54034;DHT22;39952;40.122;18.294;2022-07-23T13:05:23;41.70;17.40
54034;DHT22;39952;40.122;18.294;2022-07-23T13:08:31;41.80;17.30
54034;DHT22;39952;40.122;18.294;2022-07-23T13:11:39;42.00;17.20
54034;DHT22;39952;40.122;18.294;2022-07-23T13:14:47;42.30;16.60
54034;DHT22;39952;40.122;18.294;2022-07-23T13:17:54;42.50;16.50
54034;DHT22;39952;40.122;18.294;2022-07-23T13:21:01;41.70;17.10
54034;DHT22;39952;40.122;18.294;2022-07-23T13:24:09;41.40;17.70
54034;DHT22;39952;40.122;18.294;2022-07-23T13:27:16;41.10;18.00
54034;DHT22;39952;40.122;18.294;2022-07-23T13:30:24;41.00;18.10
54034;DHT22;39952;40.122;18.294;2022-07-23T13:33:31;40.70;18.20
54034;DHT22;39952;40.122;18.294;2022-07-23T13:36:38;40.80;18.30
54034;DHT22;39952;40.122;18.294;2022-07-23T13:39:44;41.40;17.90
54034;DHT22;39952;40.122;18.294;2022-07-23T13:42:51;41.70;17.60
54034;DHT22;39952;40.122;18.294;2022-07-23T13:45:59;41.90;17.50
54034;DHT22;39952;40.122;18.294;2022-07-23T13:49:06;41.80;17.60
54034;DHT22;39952;40.122;18.294;2022-07-23T13:52:14;41.60;17.80
54034;DHT22;39952;40.122;18.294;2022-07-23T13:55:21;41.50;18.10
54034;DHT22;39952;40.122;18.294;2022-07-23T13:58:28;40.80;18.50
54034;DHT22;39952;40.122;18.294;2022-07-23T14:01:36;41.00;18.90
54034;DHT22;39952;40.122;18.294;2022-07-23T14:04:50;41.00;19.00
54034;DHT22;39952;40.122;18.294;2022-07-23T14:07:57;40.20;20.00
54034;DHT22;39952;40.122;18.294;2022-07-23T14:11:04;39.80;20.60
54034;DHT22;39952;40.122;18.294;2022-07-23T14:14:11;39.60;20.70
54034;DHT22;39952;40.122;18.294;2022-07-23T14:17:19;40.10;19.90
54034;DHT22;39952;40.122;18.294;2022-07-23T14:20:26;40.50;19.50
54034;DHT22;39952;40.122;18.294;2022-07-23T14:23:32;40.20;19.60
54034;DHT22;39952;40.122;18.294;2022-07-23T14:26:39;39.80;19.70
54034;DHT22;39952;40.122;18.294;2022-07-23T14:29:46;39.80;20.20
54034;DHT22;39952;40.122;18.294;2022-07-23T14:32:54;40.20;20.00
54034;DHT22;39952;40.122;18.294;2022-07-23T14:36:01;39.50;20.30
54034;DHT22;39952;40.122;18.294;2022-07-23T14:39:08;39.40;20.50
54034;DHT22;39952;40.122;18.294;2022-07-23T14:42:15;39.80;20.30
54034;DHT22;39952;40.122;18.294;2022-07-23T14:45:22;40.10;19.80
54034;DHT22;39952;40.122;18.294;2022-07-23T14:48:30;39.50;20.60
54034;DHT22;39952;40.122;18.294;2022-07-23T14:51:37;39.20;21.00
54034;DHT22;39952;40.122;18.294;2022-07-23T14:54:44;39.00;21.00
54034;DHT22;39952;40.122;18.294;2022-07-23T14:57:52;39.50;20.20
54034;DHT22;39952;40.122;18.294;2022-07-23T15:00:59;38.90;20.90
54034;DHT22;39952;40.122;18.294;2022-07-23T15:04:07;38.40;21.20
54034;DHT22;39952;40.122;18.294;2022-07-23T15:07:36;38.40;21.50
54034;DHT22;39952;40.122;18.294;2022-07-23T15:10:43;38.40;21.60
54034;DHT22;39952;40.122;18.294;2022-07-23T15:13:50;38.50;21.50
54034;DHT22;39952;40.122;18.294;2022-07-23T15:16:57;38.60;21.50
54034;DHT22;39952;40.122;18.294;2022-07-23T15:20:06;38.80;21.20
54034;DHT22;39952;40.122;18.294;2022-07-23T15:23:13;38.80;21.00
54034;DHT22;39952;40.122;18.294;2022-07-23T15:26:20;38.60;21.10
54034;DHT22;39952;40.122;18.294;2022-07-23T15:29:28;38.60;21.30
54034;DHT22;39952;40.122;18.294;2022-07-23T15:32:35;38.40;21.40
54034;DHT22;39952;40.122;18.294;2022-07-23T15:35:43;38.40;21.50
54034;DHT22;39952;40.122;18.294;2022-07-23T15:38:50;38.60;21.30
54034;DHT22;39952;40.122;18.294;2022-07-23T15:41:56;38.60;21.00
54034;DHT22;39952;40.122;18.294;2022-07-23T15:45:04;38.50;20.90
54034;DHT22;39952;40.122;18.294;2022-07-23T15:48:12;38.30;21.30
54034;DHT22;39952;40.122;18.294;2022-07-23T15:51:20;38.20;21.40
54034;DHT22;39952;40.122;18.294;2022-07-23T15:54:27;38.20;21.30
54034;DHT22;39952;40.122;18.294;2022-07-23T15:57:34;37.90;21.60
54034;DHT22;39952;40.122;18.294;2022-07-23T16:00:41;37.80;21.80
54034;DHT22;39952;40.122;18.294;2022-07-23T16:03:47;37.90;21.60
54034;DHT22;39952;40.122;18.294;2022-07-23T16:06:55;37.80;21.80
54034;DHT22;39952;40.122;18.294;2022-07-23T16:10:04;37.90;21.80
54034;DHT22;39952;40.122;18.294;2022-07-23T16:13:12;38.10;21.80
54034;DHT22;39952;40.122;18.294;2022-07-23T16:16:19;38.30;21.80
54034;DHT22;39952;40.122;18.294;2022-07-23T16:19:27;38.30;21.60
54034;DHT22;39952;40.122;18.294;2022-07-23T16:22:35;38.30;21.70
54034;DHT22;39952;40.122;18.294;2022-07-23T16:25:43;38.40;21.60
54034;DHT22;39952;40.122;18.294;2022-07-23T16:28:49;38.10;21.60
54034;DHT22;39952;40.122;18.294;2022-07-23T16:31:57;37.90;21.70
54034;DHT22;39952;40.122;18.294;2022-07-23T16:35:04;37.80;22.00
54034;DHT22;39952;40.122;18.294;2022-07-23T16:38:13;37.60;22.30
54034;DHT22;39952;40.122;18.294;2022-07-23T16:41:20;37.80;22.30
54034;DHT22;39952;40.122;18.294;2022-07-23T16:44:26;37.70;22.50
54034;DHT22;39952;40.122;18.294;2022-07-23T16:47:34;37.70;22.80
54034;DHT22;39952;40.122;18.294;2022-07-23T16:50:41;37.80;22.50
54034;DHT22;39952;40.122;18.294;2022-07-23T16:53:49;37.50;22.60
54034;DHT22;39952;40.122;18.294;2022-07-23T16:56:57;37.30;23.20
54034;DHT22;39952;40.122;18.294;2022-07-23T17:00:05;37.50;23.10
54034;DHT22;39952;40.122;18.294;2022-07-23T17:03:13;37.90;23.00
54034;DHT22;39952;40.122;18.294;2022-07-23T17:06:19;38.20;22.80
54034;DHT22;39952;40.122;18.294;2022-07-23T17:09:28;38.20;22.80
54034;DHT22;39952;40.122;18.294;2022-07-23T17:12:34;37.90;23.20
54034;DHT22;39952;40.122;18.294;2022-07-23T17:15:41;37.90;23.20
54034;DHT22;39952;40.122;18.294;2022-07-23T17:18:48;38.00;23.10
54034;DHT22;39952;40.122;18.294;2022-07-23T17:21:54;37.80;23.20
54034;DHT22;39952;40.122;18.294;2022-07-23T17:25:04;38.10;22.90
54034;DHT22;39952;40.122;18.294;2022-07-23T17:28:16;38.20;22.70
54034;DHT22;39952;40.122;18.294;2022-07-23T17:31:24;38.20;23.00
54034;DHT22;39952;40.122;18.294;2022-07-23T17:34:30;37.80;24.70
54034;DHT22;39952;40.122;18.294;2022-07-23T17:37:37;37.60;25.70
54034;DHT22;39952;40.122;18.294;2022-07-23T17:40:46;37.30;26.30
54034;DHT22;39952;40.122;18.294;2022-07-23T17:43:53;37.20;26.90
54034;DHT22;39952;40.122;18.294;2022-07-23T17:46:59;36.80;27.40
54034;DHT22;39952;40.122;18.294;2022-07-23T17:50:06;36.80;27.40
54034;DHT22;39952;40.122;18.294;2022-07-23T17:53:13;36.70;27.30
54034;DHT22;39952;40.122;18.294;2022-07-23T17:56:22;36.60;27.40
54034;DHT22;39952;40.122;18.294;2022-07-23T17:59:28;36.60;27.20
54034;DHT22;39952;40.122;18.294;2022-07-23T18:02:35;36.40;27.40
54034;DHT22;39952;40.122;18.294;2022-07-23T18:05:42;36.30;27.30
54034;DHT22;39952;40.122;18.294;2022-07-23T18:08:49;36.30;27.30
54034;DHT22;39952;40.122;18.294;2022-07-23T18:11:57;36.20;27.50
54034;DHT22;39952;40.122;18.294;2022-07-23T18:15:04;36.20;27.50
54034;DHT22;39952;40.122;18.294;2022-07-23T18:18:11;36.00;27.90
54034;DHT22;39952;40.122;18.294;2022-07-23T18:21:18;35.80;28.30
54034;DHT22;39952;40.122;18.294;2022-07-23T18:24:25;35.70;28.70
54034;DHT22;39952;40.122;18.294;2022-07-23T18:27:33;35.60;28.90
54034;DHT22;39952;40.122;18.294;2022-07-23T18:30:40;35.60;28.80
54034;DHT22;39952;40.122;18.294;2022-07-23T18:33:47;35.60;29.00
54034;DHT22;39952;40.122;18.294;2022-07-23T18:36:54;35.40;29.00
54034;DHT22;39952;40.122;18.294;2022-07-23T18:40:02;35.40;29.10
54034;DHT22;39952;40.122;18.294;2022-07-23T18:43:11;35.40;29.00
54034;DHT22;39952;40.122;18.294;2022-07-23T18:46:17;35.30;29.40
54034;DHT22;39952;40.122;18.294;2022-07-23T18:49:24;35.20;29.50
54034;DHT22;39952;40.122;18.294;2022-07-23T18:52:31;35.10;29.80
54034;DHT22;39952;40.122;18.294;2022-07-23T18:55:39;35.00;30.30
54034;DHT22;39952;40.122;18.294;2022-07-23T18:58:47;34.90;31.00
54034;DHT22;39952;40.122;18.294;2022-07-23T19:01:53;34.80;30.40
54034;DHT22;39952;40.122;18.294;2022-07-23T19:05:00;34.80;32.10
54034;DHT22;39952;40.122;18.294;2022-07-23T19:08:07;34.70;32.80
54034;DHT22;39952;40.122;18.294;2022-07-23T19:11:14;34.80;32.90
54034;DHT22;39952;40.122;18.294;2022-07-23T19:14:22;34.80;33.10
54034;DHT22;39952;40.122;18.294;2022-07-23T19:17:29;34.80;33.50
54034;DHT22;39952;40.122;18.294;2022-07-23T19:20:36;34.80;33.20
54034;DHT22;39952;40.122;18.294;2022-07-23T19:23:46;34.60;33.70
54034;DHT22;39952;40.122;18.294;2022-07-23T19:26:53;34.10;34.70
54034;DHT22;39952;40.122;18.294;2022-07-23T19:30:02;34.10;34.90
54034;DHT22;39952;40.122;18.294;2022-07-23T19:33:09;34.00;35.40
54034;DHT22;39952;40.122;18.294;2022-07-23T19:36:16;33.70;36.00